Time;durP1;ratioP1;P1;durP2;ratioP2;P2;SDS_P1;SDS_P2;PMS_P1;PMS_P2;Temp;Humidity;BMP_temperature;BMP_pressure;BME280_temperature;BME280_humidity;BME280_pressure;Samples;Min_cycle;Max_cycle;Signal;HPM_P1;HPM_P2
2022/06/08 00:00:24;;;;;;;2.50;2.30;;;15.90;99.90;;;;;;7375536;19;20709;-79
2022/06/08 00:03:01;;;;;;;2.80;2.60;;;15.80;99.90;;;;;;7374819;19;20347;-79
2022/06/08 00:05:27;;;;;;;2.92;2.70;;;15.80;99.90;;;;;;7272816;19;2004424;-80
2022/06/08 00:07:53;;;;;;;2.90;2.70;;;15.80;99.90;;;;;;7374912;19;20356;-79
2022/06/08 00:10:18;;;;;;;2.77;2.57;;;15.80;99.90;;;;;;7375645;19;20359;-81
2022/06/08 00:12:44;;;;;;;2.85;2.65;;;15.80;99.90;;;;;;7372118;19;20899;-80
2022/06/08 00:15:10;;;;;;;2.90;2.70;;;15.70;99.90;;;;;;7376411;19;20374;-80
2022/06/08 00:17:36;;;;;;;3.88;3.15;;;15.70;99.90;;;;;;7372091;19;20908;-81
2022/06/08 00:20:03;;;;;;;2.38;2.28;;;15.60;99.90;;;;;;7376594;19;20332;-79
2022/06/08 00:22:29;;;;;;;3.08;2.80;;;15.60;99.90;;;;;;7373691;19;20348;-80
2022/06/08 00:24:54;;;;;;;4.20;2.77;;;15.60;99.90;;;;;;7373788;19;21106;-78
2022/06/08 00:27:20;;;;;;;3.25;2.47;;;15.60;99.90;;;;;;7374960;19;20332;-80
2022/06/08 00:29:46;;;;;;;2.17;2.08;;;15.60;99.90;;;;;;7379884;19;20431;-81
2022/06/08 00:32:11;;;;;;;3.05;2.75;;;15.50;99.90;;;;;;7381094;19;20820;-80
2022/06/08 00:34:37;;;;;;;3.20;2.80;;;15.50;99.90;;;;;;7385077;19;20377;-80
2022/06/08 00:37:03;;;;;;;3.00;2.80;;;15.50;99.90;;;;;;7382831;19;21070;-80
2022/06/08 00:39:28;;;;;;;3.15;2.92;;;15.50;99.90;;;;;;7383417;19;20313;-80
2022/06/08 00:41:57;;;;;;;2.87;2.67;;;15.50;99.90;;;;;;7378949;19;20348;-80
2022/06/08 00:44:26;;;;;;;3.50;3.20;;;15.40;99.90;;;;;;7381506;19;20352;-81
2022/06/08 00:46:52;;;;;;;3.78;3.45;;;15.30;99.90;;;;;;7379787;19;20431;-79
2022/06/08 00:49:30;;;;;;;3.85;3.53;;;15.30;99.90;;;;;;7383523;19;20360;-79
2022/06/08 00:51:56;;;;;;;3.17;2.88;;;15.30;99.90;;;;;;7379667;19;20718;-79
2022/06/08 00:54:26;;;;;;;3.30;3.10;;;15.20;99.90;;;;;;7383940;19;20353;-80
2022/06/08 00:57:00;;;;;;;2.90;2.70;;;15.20;99.90;;;;;;7381285;19;20316;-78
2022/06/08 00:59:26;;;;;;;3.22;2.95;;;15.20;99.90;;;;;;7384246;19;20745;-79
2022/06/08 01:01:51;;;;;;;3.60;3.30;;;15.20;99.90;;;;;;7377991;19;20411;-79
2022/06/08 01:04:18;;;;;;;3.00;2.80;;;15.20;99.90;;;;;;7381663;19;20341;-79
2022/06/08 01:06:54;;;;;;;3.83;3.50;;;15.20;99.90;;;;;;7378926;19;20350;-79
2022/06/08 01:09:27;;;;;;;3.77;3.47;;;15.30;99.90;;;;;;7382232;19;21878;-80
2022/06/08 01:11:52;;;;;;;3.50;3.20;;;15.20;99.90;;;;;;7376512;19;20344;-80
2022/06/08 01:14:18;;;;;;;3.70;3.40;;;15.20;99.90;;;;;;7380863;19;20361;-82
2022/06/08 01:16:56;;;;;;;2.90;2.70;;;15.20;99.90;;;;;;7379194;19;20324;-80
2022/06/08 01:19:23;;;;;;;3.17;2.88;;;15.20;99.90;;;;;;7381378;19;20403;-79
2022/06/08 01:21:50;;;;;;;3.47;3.17;;;15.20;99.90;;;;;;7377589;19;20383;-79
2022/06/08 01:24:22;;;;;;;3.70;3.40;;;15.20;99.90;;;;;;7381208;19;20349;-79
2022/06/08 01:27:05;;;;;;;3.15;2.80;;;15.20;99.90;;;;;;7378084;19;20320;-79
2022/06/08 01:30:07;;;;;;;4.10;3.80;;;15.10;99.90;;;;;;7279521;19;2004391;-79
2022/06/08 01:32:54;;;;;;;3.13;2.92;;;15.10;99.90;;;;;;7272160;19;2019245;-79
2022/06/08 01:35:26;;;;;;;3.80;3.40;;;15.10;99.90;;;;;;7278112;19;2004577;-79
2022/06/08 01:38:14;;;;;;;3.90;3.58;;;15.00;99.90;;;;;;7381079;19;20321;-79
2022/06/08 01:40:44;;;;;;;3.83;3.45;;;15.00;99.90;;;;;;7276233;19;2004408;-82
2022/06/08 01:43:20;;;;;;;3.33;3.08;;;15.00;99.90;;;;;;7379666;19;20368;-81
2022/06/08 01:46:17;;;;;;;3.20;2.90;;;15.00;99.90;;;;;;7378263;19;20438;-79
2022/06/08 01:49:07;;;;;;;3.60;3.30;;;15.00;99.90;;;;;;7380677;19;20345;-80
2022/06/08 01:51:57;;;;;;;4.72;3.80;;;15.00;99.90;;;;;;7277951;19;2004327;-80
2022/06/08 01:54:32;;;;;;;4.17;3.63;;;15.00;99.90;;;;;;7277888;19;2004704;-79
2022/06/08 01:57:12;;;;;;;3.50;3.20;;;15.00;99.90;;;;;;7377047;19;20354;-79
2022/06/08 01:59:50;;;;;;;4.40;3.33;;;15.00;99.90;;;;;;7380861;19;20321;-79
2022/06/08 02:02:49;;;;;;;3.88;3.58;;;14.90;99.90;;;;;;7374078;19;20428;-79
2022/06/08 02:05:19;;;;;;;3.70;3.35;;;14.90;99.90;;;;;;7274347;19;2004275;-79
2022/06/08 02:07:49;;;;;;;3.03;2.83;;;14.90;99.90;;;;;;7379366;19;20978;-84
2022/06/08 02:10:21;;;;;;;3.50;3.20;;;14.80;99.90;;;;;;7379808;19;20312;-80
2022/06/08 02:12:52;;;;;;;3.75;3.45;;;14.80;99.90;;;;;;7378347;19;20348;-82
2022/06/08 02:15:33;;;;;;;3.78;3.40;;;14.80;99.90;;;;;;7379289;19;20353;-79
2022/06/08 02:18:04;;;;;;;3.70;3.40;;;14.80;99.90;;;;;;7377907;19;20352;-79
2022/06/08 02:20:40;;;;;;;3.35;3.03;;;14.80;99.90;;;;;;7378222;19;20717;-79
2022/06/08 02:23:28;;;;;;;3.80;3.40;;;14.80;99.90;;;;;;7375018;19;20341;-79
2022/06/08 02:25:57;;;;;;;4.28;3.90;;;14.80;99.90;;;;;;7377705;19;20340;-79
2022/06/08 02:28:33;;;;;;;3.92;3.63;;;14.80;99.90;;;;;;7378231;19;20388;-80
2022/06/08 02:31:10;;;;;;;3.40;3.10;;;14.70;99.90;;;;;;7375426;19;20340;-80
2022/06/08 02:36:35;;;;;;;3.90;3.50;;;14.70;99.90;;;;;;7375444;19;20344;-82
2022/06/08 02:39:12;;;;;;;4.68;4.28;;;14.70;99.90;;;;;;7378816;19;20356;-79
2022/06/08 02:41:39;;;;;;;3.95;3.65;;;14.70;99.90;;;;;;7376601;19;20336;-79
2022/06/08 02:44:08;;;;;;;5.00;4.60;;;14.70;99.90;;;;;;7376818;19;20365;-78
2022/06/08 02:47:05;;;;;;;4.75;4.35;;;14.70;99.90;;;;;;7377604;19;20964;-79
2022/06/08 02:49:34;;;;;;;5.53;4.25;;;14.70;99.90;;;;;;7273486;19;2005024;-79
2022/06/08 02:52:07;;;;;;;4.88;4.38;;;14.70;99.90;;;;;;7373341;19;20704;-79
2022/06/08 02:54:33;;;;;;;5.28;4.78;;;14.70;99.90;;;;;;7376410;19;20376;-78
2022/06/08 02:57:30;;;;;;;4.25;3.85;;;14.60;99.90;;;;;;7375984;19;20343;-79
2022/06/08 03:00:03;;;;;;;5.18;4.68;;;14.60;99.90;;;;;;7276136;19;2004753;-80
2022/06/08 03:02:50;;;;;;;4.80;4.40;;;14.60;99.90;;;;;;7376152;19;20430;-79
2022/06/08 03:05:50;;;;;;;5.63;4.60;;;14.50;99.90;;;;;;7375427;19;20367;-78
2022/06/08 03:08:20;;;;;;;4.22;3.88;;;14.60;99.90;;;;;;7270159;19;2004424;-82
2022/06/08 03:10:46;;;;;;;5.53;5.03;;;14.60;99.90;;;;;;7379296;19;20324;-79
2022/06/08 03:13:20;;;;;;;4.53;4.13;;;14.60;99.90;;;;;;7377927;19;20329;-80
2022/06/08 03:15:52;;;;;;;4.37;3.97;;;14.60;99.90;;;;;;7376208;19;20349;-79
2022/06/08 03:18:18;;;;;;;6.35;5.75;;;14.60;99.90;;;;;;7372919;19;20382;-79
2022/06/08 03:20:43;;;;;;;4.20;3.90;;;14.60;99.90;;;;;;7376874;19;20424;-78
2022/06/08 03:23:09;;;;;;;4.55;4.10;;;14.70;99.90;;;;;;7378054;19;20357;-79
2022/06/08 03:25:36;;;;;;;4.68;4.28;;;14.70;99.90;;;;;;7374622;19;21241;-79
2022/06/08 03:28:02;;;;;;;4.70;4.30;;;14.70;99.90;;;;;;7375340;19;20359;-79
2022/06/08 03:30:28;;;;;;;5.10;4.60;;;14.70;99.90;;;;;;7375474;19;20320;-79
2022/06/08 03:32:54;;;;;;;5.53;5.03;;;14.70;99.90;;;;;;7372610;19;20357;-79
2022/06/08 03:35:20;;;;;;;5.20;4.70;;;14.70;99.90;;;;;;7376749;19;20835;-79
2022/06/08 03:37:49;;;;;;;4.75;4.32;;;14.70;99.90;;;;;;7372397;19;20360;-80
2022/06/08 03:40:16;;;;;;;6.65;5.10;;;14.70;99.90;;;;;;7376237;19;20416;-80
2022/06/08 03:42:42;;;;;;;5.20;4.70;;;14.70;99.90;;;;;;7361198;19;20437;-79
2022/06/08 03:45:10;;;;;;;5.47;4.97;;;14.80;99.90;;;;;;7372076;19;20937;-80
2022/06/08 03:47:41;;;;;;;7.35;5.63;;;14.70;99.90;;;;;;7374520;19;20337;-78
2022/06/08 03:50:10;;;;;;;5.43;4.80;;;14.80;99.90;;;;;;7376503;19;20344;-79
2022/06/08 03:52:37;;;;;;;4.68;4.28;;;14.80;99.90;;;;;;7376072;19;20324;-78
2022/06/08 03:55:04;;;;;;;5.00;4.60;;;14.80;99.90;;;;;;7376131;19;20369;-79
2022/06/08 03:57:30;;;;;;;4.85;4.43;;;14.80;99.90;;;;;;7371309;19;20348;-80
2022/06/08 04:00:00;;;;;;;5.30;4.80;;;14.80;99.90;;;;;;7374700;19;20760;-80
2022/06/08 04:02:26;;;;;;;7.07;6.38;;;14.90;99.90;;;;;;7374800;19;20364;-79
2022/06/08 04:04:51;;;;;;;6.63;6.03;;;14.80;99.90;;;;;;7374695;19;20453;-79
2022/06/08 04:07:17;;;;;;;5.95;5.45;;;14.90;99.90;;;;;;7372673;19;20360;-81
2022/06/08 04:09:46;;;;;;;6.45;5.00;;;14.90;99.90;;;;;;7377438;19;20383;-79
2022/06/08 04:12:12;;;;;;;5.68;5.03;;;14.90;99.90;;;;;;7378350;19;20344;-79
2022/06/08 04:14:38;;;;;;;5.82;5.30;;;14.90;99.90;;;;;;7376085;19;20809;-80
2022/06/08 04:17:08;;;;;;;4.32;4.00;;;15.00;99.90;;;;;;7371358;19;20344;-79
2022/06/08 04:19:34;;;;;;;5.88;4.93;;;15.00;99.90;;;;;;7377456;19;20401;-79
2022/06/08 04:22:00;;;;;;;4.82;4.43;;;15.00;99.90;;;;;;7378374;19;20470;-78
2022/06/08 04:24:26;;;;;;;5.60;5.10;;;15.10;99.90;;;;;;7375776;19;21006;-79
2022/06/08 04:26:56;;;;;;;5.50;5.00;;;15.10;99.90;;;;;;7371666;19;20344;-80
2022/06/08 04:29:28;;;;;;;5.05;4.65;;;15.20;99.90;;;;;;7272840;19;2004664;-79
2022/06/08 04:31:53;;;;;;;5.63;5.13;;;15.20;99.90;;;;;;7373555;19;20924;-80
2022/06/08 04:34:24;;;;;;;5.07;4.68;;;15.30;99.90;;;;;;7376264;19;20344;-78
2022/06/08 04:36:50;;;;;;;5.07;4.57;;;15.30;99.90;;;;;;7369093;19;21114;-78
2022/06/08 04:39:18;;;;;;;6.43;5.75;;;15.40;99.90;;;;;;7373068;19;20939;-79
2022/06/08 04:41:50;;;;;;;6.78;6.15;;;15.40;99.90;;;;;;7368578;19;20410;-78
2022/06/08 04:44:17;;;;;;;5.78;5.18;;;15.40;99.90;;;;;;7375510;19;20419;-79
2022/06/08 04:46:43;;;;;;;6.25;5.65;;;15.50;99.90;;;;;;7369361;19;20323;-79
2022/06/08 04:49:15;;;;;;;5.50;5.00;;;15.60;99.90;;;;;;7374089;19;20348;-79
2022/06/08 04:51:41;;;;;;;6.32;5.72;;;15.70;99.90;;;;;;7373992;19;20349;-79
2022/06/08 04:54:08;;;;;;;6.45;5.80;;;15.80;99.90;;;;;;7375961;19;20345;-79
2022/06/08 04:56:34;;;;;;;6.75;6.05;;;15.90;99.90;;;;;;7369597;19;20883;-80
2022/06/08 04:59:01;;;;;;;6.80;6.20;;;15.90;99.90;;;;;;7374021;19;20435;-77
2022/06/08 05:01:30;;;;;;;7.10;5.80;;;16.00;99.90;;;;;;7371610;19;21212;-80
2022/06/08 05:03:58;;;;;;;6.25;5.65;;;16.00;99.90;;;;;;7371106;19;20344;-79
2022/06/08 05:06:27;;;;;;;7.18;6.47;;;16.10;99.90;;;;;;7367325;19;21455;-78
2022/06/08 05:08:52;;;;;;;6.70;6.10;;;16.10;99.90;;;;;;7373402;19;20319;-79
2022/06/08 05:11:18;;;;;;;5.07;4.60;;;16.10;99.90;;;;;;7369240;19;20353;-78
2022/06/08 05:13:46;;;;;;;5.82;5.22;;;16.20;99.90;;;;;;7368826;19;20661;-81
2022/06/08 05:16:13;;;;;;;5.57;5.07;;;16.30;99.90;;;;;;7374011;19;21243;-81
2022/06/08 05:18:43;;;;;;;6.65;5.88;;;16.40;99.90;;;;;;7372466;19;20344;-79
2022/06/08 05:21:13;;;;;;;6.50;5.90;;;16.40;99.90;;;;;;7370918;19;20358;-80
2022/06/08 05:23:40;;;;;;;6.67;6.07;;;16.50;99.90;;;;;;7376419;19;20349;-79
2022/06/08 05:26:12;;;;;;;7.20;6.47;;;16.50;99.90;;;;;;7376545;19;20356;-83
2022/06/08 05:28:39;;;;;;;6.75;6.05;;;16.60;99.90;;;;;;7381556;19;20357;-80
2022/06/08 05:31:05;;;;;;;6.95;6.28;;;16.60;99.90;;;;;;7377119;19;20434;-79
2022/06/08 05:33:34;;;;;;;6.45;5.85;;;16.70;99.90;;;;;;7381644;19;20320;-80
2022/06/08 05:36:07;;;;;;;7.38;5.65;;;16.80;99.90;;;;;;7277669;19;2004614;-79
2022/06/08 05:38:33;;;;;;;5.93;5.33;;;16.90;99.90;;;;;;7378521;19;20367;-80
2022/06/08 05:41:00;;;;;;;6.32;5.72;;;17.10;99.90;;;;;;7378765;19;20327;-82
2022/06/08 05:43:26;;;;;;;6.28;5.70;;;17.20;99.90;;;;;;7381666;19;20301;-78
2022/06/08 05:45:53;;;;;;;7.30;6.57;;;17.40;99.90;;;;;;7379821;19;20316;-77
2022/06/08 05:48:19;;;;;;;6.55;5.93;;;17.50;99.90;;;;;;7375859;19;21195;-77
2022/06/08 05:50:47;;;;;;;5.95;5.45;;;17.60;99.90;;;;;;7380455;19;20324;-78
2022/06/08 05:53:15;;;;;;;5.75;5.25;;;17.70;99.90;;;;;;7380342;19;20349;-78
2022/06/08 05:55:41;;;;;;;5.25;4.75;;;17.80;99.90;;;;;;7380100;19;21124;-78
2022/06/08 05:58:07;;;;;;;5.90;5.30;;;17.90;99.90;;;;;;7377160;19;20715;-79
2022/06/08 06:00:35;;;;;;;6.22;5.63;;;18.00;99.90;;;;;;7378483;19;20367;-81
2022/06/08 06:03:01;;;;;;;6.03;5.40;;;18.20;99.90;;;;;;7380541;19;20341;-78
2022/06/08 06:05:29;;;;;;;5.57;5.10;;;18.30;99.90;;;;;;7379355;19;20324;-79
2022/06/08 06:07:56;;;;;;;4.70;4.30;;;18.50;99.90;;;;;;7377665;19;20367;-79
2022/06/08 06:10:28;;;;;;;5.32;4.82;;;18.60;99.90;;;;;;7376867;19;20332;-83
2022/06/08 06:12:54;;;;;;;5.80;5.30;;;18.80;99.90;;;;;;7381477;19;20793;-79
2022/06/08 06:15:24;;;;;;;4.47;3.83;;;18.90;99.90;;;;;;7379550;19;20342;-79
2022/06/08 06:17:50;;;;;;;5.05;4.55;;;19.10;99.90;;;;;;7374054;19;20431;-78
2022/06/08 06:20:16;;;;;;;4.30;3.90;;;19.20;99.90;;;;;;7379550;19;20345;-78
2022/06/08 06:22:56;;;;;;;4.80;4.30;;;19.30;99.90;;;;;;7278843;19;2004395;-79
2022/06/08 06:25:45;;;;;;;5.10;4.70;;;19.50;99.90;;;;;;7275821;19;2004183;-80
2022/06/08 06:28:42;;;;;;;4.57;4.18;;;19.70;99.90;;;;;;7275549;19;2004611;-79
2022/06/08 06:31:35;;;;;;;4.55;4.15;;;19.80;99.90;;;;;;7276521;19;2004453;-79
2022/06/08 06:34:09;;;;;;;4.53;4.13;;;19.90;99.90;;;;;;7380905;19;20357;-79
2022/06/08 06:36:35;;;;;;;4.45;4.05;;;20.00;99.90;;;;;;7376188;19;20304;-79
2022/06/08 06:39:02;;;;;;;4.45;4.05;;;20.20;99.90;;;;;;7381176;19;20353;-78
2022/06/08 06:41:31;;;;;;;4.10;3.80;;;20.40;99.90;;;;;;7379329;19;20336;-76
2022/06/08 06:43:58;;;;;;;5.00;4.00;;;20.50;99.90;;;;;;7380190;19;20309;-81
2022/06/08 06:46:56;;;;;;;4.22;3.45;;;20.70;99.90;;;;;;7272942;19;2004389;-79
2022/06/08 06:49:40;;;;;;;4.35;3.95;;;21.10;99.90;;;;;;7275778;19;2004401;-79
2022/06/08 06:52:06;;;;;;;3.95;3.40;;;21.20;99.90;;;;;;7379855;19;20325;-78
2022/06/08 06:54:33;;;;;;;3.50;3.20;;;21.40;99.90;;;;;;7378640;19;20914;-79
2022/06/08 06:56:58;;;;;;;4.00;3.60;;;21.70;99.90;;;;;;7377315;19;20332;-78
2022/06/08 06:59:26;;;;;;;4.03;3.72;;;21.80;99.90;;;;;;7378988;19;20423;-79
2022/06/08 07:01:52;;;;;;;3.60;3.30;;;21.80;99.90;;;;;;7377192;19;20424;-78
2022/06/08 07:04:19;;;;;;;3.73;3.43;;;21.90;99.90;;;;;;7379865;19;20384;-78
2022/06/08 07:06:46;;;;;;;4.80;3.20;;;22.00;99.90;;;;;;7375430;19;20701;-78
2022/06/08 07:09:13;;;;;;;3.43;3.13;;;22.30;99.90;;;;;;7377327;19;20337;-79
2022/06/08 07:11:43;;;;;;;3.00;2.75;;;22.50;99.90;;;;;;7380388;19;20368;-78
2022/06/08 07:14:17;;;;;;;2.80;2.60;;;22.70;99.90;;;;;;7358933;19;20365;-79
2022/06/08 07:16:45;;;;;;;2.72;2.53;;;22.80;99.90;;;;;;7376687;19;20700;-79
2022/06/08 07:19:11;;;;;;;2.80;2.60;;;22.90;99.90;;;;;;7377503;19;21005;-78
2022/06/08 07:21:37;;;;;;;3.15;2.63;;;22.90;99.90;;;;;;7380011;19;20356;-78
2022/06/08 07:24:03;;;;;;;3.10;2.80;;;23.20;99.90;;;;;;7377341;19;20944;-79
2022/06/08 07:26:29;;;;;;;2.80;2.60;;;23.20;99.90;;;;;;7374804;19;20333;-78
2022/06/08 07:28:55;;;;;;;3.13;2.60;;;23.50;99.90;;;;;;7378977;19;20329;-79
2022/06/08 07:31:22;;;;;;;2.80;2.60;;;23.40;99.90;;;;;;7379531;19;20379;-79
2022/06/08 07:33:48;;;;;;;2.60;2.40;;;23.50;99.90;;;;;;7380434;19;20324;-79
2022/06/08 07:36:14;;;;;;;2.53;2.33;;;23.60;99.90;;;;;;7378162;19;20331;-79
2022/06/08 07:38:40;;;;;;;2.67;2.47;;;23.80;99.90;;;;;;7371305;19;20747;-78
2022/06/08 07:41:06;;;;;;;2.40;2.20;;;23.90;99.90;;;;;;7378537;19;20851;-78
2022/06/08 07:43:31;;;;;;;2.47;2.30;;;24.00;99.90;;;;;;7379595;19;20340;-79
2022/06/08 07:45:57;;;;;;;2.53;2.33;;;24.20;99.90;;;;;;7375956;19;20317;-78
2022/06/08 07:51:07;;;;;;;2.35;2.15;;;24.50;99.90;;;;;;7276073;19;2005633;-78
2022/06/08 07:53:34;;;;;;;4.00;2.10;;;24.70;99.90;;;;;;7377329;19;20328;-80
2022/06/08 07:55:59;;;;;;;2.25;2.15;;;24.70;99.90;;;;;;7371752;19;20879;-78
2022/06/08 07:58:25;;;;;;;3.43;2.00;;;24.50;99.90;;;;;;7377136;19;20414;-78
2022/06/08 08:00:51;;;;;;;2.03;1.80;;;24.70;99.90;;;;;;7374296;19;20324;-79
2022/06/08 08:03:17;;;;;;;2.22;2.03;;;24.70;99.90;;;;;;7375009;19;20330;-80
2022/06/08 08:05:43;;;;;;;1.95;1.85;;;25.00;99.90;;;;;;7377275;19;20981;-77
2022/06/08 08:08:09;;;;;;;2.17;1.83;;;25.30;99.90;;;;;;7375779;19;20340;-79
2022/06/08 08:10:34;;;;;;;1.73;1.63;;;25.40;99.90;;;;;;7373602;19;20360;-79
2022/06/08 08:13:00;;;;;;;2.15;1.58;;;25.50;99.90;;;;;;7377493;19;21120;-79
2022/06/08 08:15:26;;;;;;;1.63;1.52;;;25.60;99.90;;;;;;7375562;19;20321;-77
2022/06/08 08:17:52;;;;;;;1.73;1.63;;;25.30;99.90;;;;;;7374846;19;20333;-79
2022/06/08 08:20:18;;;;;;;1.60;1.50;;;25.50;99.90;;;;;;7371986;19;20367;-77
2022/06/08 08:22:46;;;;;;;1.40;1.30;;;25.80;99.90;;;;;;7375887;19;20345;-77
2022/06/08 08:25:12;;;;;;;1.27;1.27;;;26.20;99.90;;;;;;7374001;19;21014;-79
2022/06/08 08:27:38;;;;;;;1.45;1.35;;;26.60;99.90;;;;;;7373931;19;20392;-81
2022/06/08 08:30:04;;;;;;;1.67;1.50;;;26.70;99.90;;;;;;7377386;19;21090;-79
2022/06/08 08:32:30;;;;;;;1.63;1.40;;;26.60;99.90;;;;;;7374701;19;20493;-79
2022/06/08 08:34:55;;;;;;;2.20;1.50;;;26.50;99.90;;;;;;7377290;19;20339;-79
2022/06/08 08:37:21;;;;;;;1.60;1.40;;;26.40;99.90;;;;;;7373040;19;20404;-78
2022/06/08 08:39:47;;;;;;;1.20;1.20;;;26.60;99.90;;;;;;7363626;19;22084;-80
2022/06/08 08:42:22;;;;;;;1.17;1.17;;;26.60;99.90;;;;;;5993091;19;10001182;-79
2022/06/08 08:45:05;;;;;;;1.38;1.27;;;26.80;99.90;;;;;;7375557;19;20833;-79
2022/06/08 08:47:49;;;;;;;1.23;1.20;;;27.10;98.80;;;;;;7369972;19;20316;-76
2022/06/08 08:50:29;;;;;;;1.50;1.40;;;27.30;98.70;;;;;;7377967;19;20324;-77
2022/06/08 08:53:09;;;;;;;1.67;1.33;;;27.50;98.90;;;;;;7381291;19;20344;-77
2022/06/08 08:55:48;;;;;;;1.20;1.10;;;27.40;97.80;;;;;;7381820;19;20328;-79
2022/06/08 08:58:25;;;;;;;1.40;1.30;;;27.50;95.70;;;;;;7383340;19;20320;-78
2022/06/08 09:00:56;;;;;;;1.20;1.20;;;27.90;97.60;;;;;;7379197;19;21037;-78
2022/06/08 09:03:43;;;;;;;1.20;1.20;;;28.10;96.40;;;;;;7382312;19;20376;-78
2022/06/08 09:06:12;;;;;;;1.10;1.10;;;28.00;95.90;;;;;;7276037;19;2019719;-79
2022/06/08 09:08:38;;;;;;;2.00;1.17;;;28.30;93.20;;;;;;7380049;19;20356;-80
2022/06/08 09:11:12;;;;;;;1.20;1.20;;;28.50;93.90;;;;;;7379589;19;20421;-79
2022/06/08 09:14:04;;;;;;;1.20;1.10;;;28.30;93.20;;;;;;7381926;19;20308;-83
2022/06/08 09:16:39;;;;;;;2.40;1.10;;;28.50;92.30;;;;;;7377525;19;20324;-81
2022/06/08 09:19:37;;;;;;;1.00;1.00;;;28.60;92.10;;;;;;7381184;19;20362;-77
2022/06/08 09:22:03;;;;;;;2.00;1.17;;;28.60;90.80;;;;;;7277901;19;2004516;-76
2022/06/08 09:24:41;;;;;;;1.93;1.07;;;28.90;91.20;;;;;;7386112;19;20847;-77
2022/06/08 09:27:13;;;;;;;2.72;1.00;;;28.70;85.50;;;;;;7380016;19;20333;-79
2022/06/08 09:30:13;;;;;;;1.25;1.02;;;28.50;89.20;;;;;;7381502;19;20367;-80
2022/06/08 09:32:44;;;;;;;0.80;0.80;;;28.30;87.80;;;;;;7282241;19;2004753;-78
2022/06/08 09:35:35;;;;;;;2.00;1.00;;;29.00;88.50;;;;;;7386816;19;20996;-76
2022/06/08 09:38:06;;;;;;;1.08;1.00;;;29.40;83.10;;;;;;7383947;19;21281;-78
2022/06/08 09:40:44;;;;;;;1.00;1.00;;;29.10;85.20;;;;;;7379912;19;21262;-77
2022/06/08 09:43:30;;;;;;;1.08;1.00;;;29.50;85.70;;;;;;7379647;19;20375;-78
2022/06/08 09:46:02;;;;;;;1.40;1.30;;;29.50;83.10;;;;;;7379418;19;20328;-77
2022/06/08 09:51:28;;;;;;;1.20;1.10;;;30.30;80.90;;;;;;7279183;19;2004643;-76
2022/06/08 09:54:05;;;;;;;1.00;1.00;;;30.60;79.10;;;;;;7382591;19;20355;-76
2022/06/08 09:56:48;;;;;;;1.00;1.00;;;30.80;74.30;;;;;;7376662;19;20384;-78
2022/06/08 09:59:51;;;;;;;0.90;0.90;;;30.00;73.20;;;;;;7278653;19;2017741;-77
2022/06/08 10:02:51;;;;;;;0.90;0.90;;;29.20;76.40;;;;;;7277797;19;2004373;-76
2022/06/08 10:05:38;;;;;;;1.15;1.08;;;29.30;79.00;;;;;;7277323;19;2004484;-78
2022/06/08 10:08:10;;;;;;;1.00;1.00;;;28.60;77.90;;;;;;7382125;19;20349;-78
2022/06/08 10:11:33;;;;;;;0.98;0.98;;;28.70;80.60;;;;;;7379296;19;21269;-78
2022/06/08 10:13:50;;;;;;;1.00;1.00;;;28.50;81.20;;;;;;7276346;19;2004410;-77
2022/06/08 10:16:18;;;;;;;1.00;1.00;;;28.10;82.80;;;;;;7380201;19;20324;-78
2022/06/08 10:18:51;;;;;;;1.05;1.05;;;28.20;85.50;;;;;;7381049;19;20356;-77
2022/06/08 10:21:20;;;;;;;1.90;1.10;;;27.90;84.10;;;;;;7278834;19;2009079;-77
2022/06/08 10:23:55;;;;;;;1.00;0.82;;;28.60;86.80;;;;;;7380865;19;20511;-77
2022/06/08 10:26:35;;;;;;;0.93;0.93;;;29.20;84.20;;;;;;7376950;19;21115;-77
2022/06/08 10:29:13;;;;;;;1.20;1.10;;;29.70;80.40;;;;;;7382250;19;20355;-78
2022/06/08 10:31:57;;;;;;;1.10;1.10;;;30.50;78.20;;;;;;7379462;19;20342;-78
2022/06/08 10:34:25;;;;;;;0.90;0.90;;;30.60;76.10;;;;;;7278442;19;2004366;-78
2022/06/08 10:36:54;;;;;;;3.17;1.52;;;29.90;68.30;;;;;;7375216;19;20344;-78
2022/06/08 10:39:20;;;;;;;0.90;0.90;;;29.90;69.80;;;;;;7380168;19;20325;-78
2022/06/08 10:44:50;;;;;;;0.80;0.80;;;30.00;72.30;;;;;;7176471;19;2004399;-78
2022/06/08 10:47:25;;;;;;;0.80;0.80;;;30.70;72.60;;;;;;7376029;19;20317;-77
2022/06/08 10:49:55;;;;;;;1.20;1.00;;;29.60;66.40;;;;;;7381904;19;20333;-77
2022/06/08 10:52:21;;;;;;;0.90;0.90;;;29.40;67.70;;;;;;7383123;19;20327;-82
2022/06/08 10:54:57;;;;;;;0.90;0.90;;;29.40;68.90;;;;;;7403270;19;20343;-84
2022/06/08 10:57:42;;;;;;;0.95;0.90;;;29.20;68.80;;;;;;7271663;19;2004342;-90
2022/06/08 11:00:18;;;;;;;0.80;0.80;;;29.80;69.80;;;;;;7289290;19;2004312;-83
2022/06/08 11:02:59;;;;;;;0.80;0.80;;;30.50;69.40;;;;;;7391390;19;20874;-83
2022/06/08 11:05:46;;;;;;;0.80;0.80;;;30.80;65.70;;;;;;7286273;19;2004414;-83
2022/06/08 11:08:13;;;;;;;0.90;0.90;;;31.40;67.20;;;;;;7281917;19;2011829;-88
2022/06/08 11:10:45;;;;;;;1.00;1.00;;;31.50;64.40;;;;;;7384079;19;20348;-83
2022/06/08 11:13:22;;;;;;;0.90;0.90;;;31.60;66.00;;;;;;7386813;19;20312;-81
2022/06/08 11:16:23;;;;;;;1.10;1.00;;;31.10;64.70;;;;;;7384287;19;20337;-82
2022/06/08 11:19:19;;;;;;;1.73;0.90;;;31.70;68.60;;;;;;7279911;19;2008166;-82
2022/06/08 11:21:47;;;;;;;1.13;1.13;;;32.10;65.50;;;;;;7276995;19;2004364;-81
2022/06/08 11:24:17;;;;;;;1.60;1.50;;;32.00;61.10;;;;;;7381809;19;21182;-82
2022/06/08 11:26:48;;;;;;;1.00;1.00;;;32.00;63.20;;;;;;7376243;19;20345;-84
2022/06/08 11:29:16;;;;;;;0.77;0.77;;;32.70;65.90;;;;;;7378987;19;20353;-82
2022/06/08 11:31:42;;;;;;;0.90;0.90;;;33.10;63.90;;;;;;7381600;19;20394;-79
2022/06/08 11:34:16;;;;;;;1.50;1.10;;;33.20;62.60;;;;;;7381114;19;20357;-83
2022/06/08 11:37:27;;;;;;;1.05;0.98;;;32.30;59.90;;;;;;7376137;19;20360;-82
2022/06/08 11:40:04;;;;;;;1.33;1.23;;;32.00;62.30;;;;;;7278589;19;2004234;-80
2022/06/08 11:42:35;;;;;;;0.90;0.90;;;32.30;66.40;;;;;;7378250;19;20331;-81
2022/06/08 11:45:34;;;;;;;1.10;1.10;;;32.40;63.40;;;;;;7380036;19;20325;-80
2022/06/08 11:48:04;;;;;;;1.40;1.00;;;32.50;62.40;;;;;;7272761;19;2006152;-78
2022/06/08 11:50:42;;;;;;;1.00;1.00;;;32.20;61.80;;;;;;7377473;19;20316;-81
2022/06/08 11:53:27;;;;;;;1.05;1.05;;;32.20;62.90;;;;;;7276877;19;2004206;-81
2022/06/08 11:56:24;;;;;;;1.48;1.30;;;31.70;62.00;;;;;;7274567;19;2005141;-84
2022/06/08 11:58:54;;;;;;;1.00;1.00;;;31.40;62.60;;;;;;7378479;19;20748;-80
2022/06/08 12:01:22;;;;;;;4.60;1.20;;;31.20;60.80;;;;;;7370981;19;20341;-85
2022/06/08 12:03:51;;;;;;;1.15;1.10;;;31.60;62.60;;;;;;7377865;19;20312;-81
2022/06/08 12:06:22;;;;;;;1.10;1.00;;;31.30;61.70;;;;;;7375815;19;20324;-80
2022/06/08 12:08:59;;;;;;;1.30;1.10;;;31.40;61.60;;;;;;7375834;19;20339;-83
2022/06/08 12:11:28;;;;;;;1.15;0.95;;;31.30;62.10;;;;;;7376085;19;20665;-82
2022/06/08 12:13:55;;;;;;;1.08;1.00;;;32.20;63.30;;;;;;7380288;19;20313;-79
2022/06/08 12:16:30;;;;;;;1.00;1.00;;;31.80;59.00;;;;;;7376449;19;20325;-80
2022/06/08 12:19:15;;;;;;;1.30;0.98;;;31.40;62.30;;;;;;7276699;19;2004330;-81
2022/06/08 12:21:42;;;;;;;1.00;0.90;;;31.60;64.80;;;;;;7273223;19;2004568;-80
2022/06/08 12:24:11;;;;;;;1.10;1.10;;;31.20;62.20;;;;;;7379976;19;20328;-81
2022/06/08 12:26:57;;;;;;;1.13;1.10;;;30.80;60.20;;;;;;7375483;19;20741;-83
2022/06/08 12:29:52;;;;;;;3.20;1.10;;;30.50;60.30;;;;;;7277227;19;2004390;-85
2022/06/08 12:32:26;;;;;;;0.90;0.90;;;30.40;63.70;;;;;;7277190;19;2004527;-82
2022/06/08 12:35:00;;;;;;;1.38;1.10;;;30.40;63.20;;;;;;7380365;19;20413;-82
2022/06/08 12:37:26;;;;;;;1.00;1.00;;;30.30;63.80;;;;;;7375853;19;20340;-82
2022/06/08 12:39:52;;;;;;;1.10;1.10;;;30.40;64.60;;;;;;7380400;19;20457;-82
2022/06/08 12:42:24;;;;;;;1.00;0.90;;;30.50;62.20;;;;;;7377317;19;20343;-82
2022/06/08 12:44:53;;;;;;;0.95;0.95;;;30.30;64.10;;;;;;7379106;19;20331;-80
2022/06/08 12:47:19;;;;;;;0.93;0.90;;;29.90;62.50;;;;;;7373892;19;20419;-81
2022/06/08 12:49:48;;;;;;;1.70;1.00;;;29.80;64.40;;;;;;7378829;19;20320;-82
2022/06/08 12:52:21;;;;;;;0.98;0.98;;;29.60;64.70;;;;;;7377965;19;20320;-81
2022/06/08 12:54:47;;;;;;;1.98;1.48;;;29.60;63.50;;;;;;7380144;19;20973;-85
2022/06/08 12:57:18;;;;;;;1.10;1.00;;;29.50;63.80;;;;;;7376713;19;20344;-82
2022/06/08 12:59:45;;;;;;;1.20;1.10;;;29.50;62.90;;;;;;7381613;19;20313;-80
2022/06/08 13:02:16;;;;;;;0.90;0.90;;;29.60;63.40;;;;;;7376702;19;20456;-81
2022/06/08 13:04:42;;;;;;;2.30;1.00;;;29.70;65.80;;;;;;7375962;19;20321;-81
2022/06/08 13:07:11;;;;;;;1.77;1.10;;;29.60;66.40;;;;;;7371366;19;20356;-81
2022/06/08 13:09:37;;;;;;;1.20;1.10;;;29.40;67.30;;;;;;7373474;19;20576;-80
2022/06/08 13:12:02;;;;;;;1.40;1.10;;;29.30;66.30;;;;;;7375378;19;20922;-79
2022/06/08 13:14:28;;;;;;;0.90;0.90;;;29.10;67.40;;;;;;7375180;19;20355;-79
2022/06/08 13:16:54;;;;;;;1.42;1.00;;;29.20;66.30;;;;;;7369601;19;20352;-79
2022/06/08 13:19:20;;;;;;;1.10;1.00;;;29.20;66.70;;;;;;7377131;19;20321;-79